Weather at McGill Ultralight Field [CLOSED]

Public forecast

Using degrees Fahrenheit for public forecast. Weather courtesy of forecast.io.

Closest aviation weather report (METAR) to McGill Ultralight Field

Closest report is Phoenix Deer Valley Airport, 4.2 nm (7.7 km) E. Retrieved 2021/06/20 03:53 UTC (8 minutes ago):

KDVT 200353Z 23008KT 10SM CLR 41/09 A2960 RMK AO2 SLP992 T04060089

Closest aviation forecast (TAF) to McGill Ultralight Field

Closest forecast is Phoenix Deer Valley Airport, 4.2 nm (7.7 km) E. Retrieved 2021-06-20 00:39 UTC (3 hours ago):

TAF KDVT 192336Z 2000/2024 24015G22KT P6SM SKC FM200300 23010KT P6SM SKC FM200800 VRB05KT P6SM FEW150 FEW250 FM201600 20010KT P6SM SKC FM201900 24014G24KT P6SM SKC